Terminal Aerodrome Forecast
Issued by NWS

Home | Current Version | Previous Version | Text Only | Print | Product List | Glossary On
Versions: 1 2 3 4 5 6 7 8 9 10 11 12 13 14 15 16 17 18 19 20 21 22 23 24 25 26 27 28 29 30 31 32 33 34 35 36 37 38 39 40 41 42 43 44 45 46 47 48 49 50
000
FTUS45 KBOU 312340
TAFBJC
TAF
KBJC 312340Z 0100/0124 24007KT P6SM VCSH FEW015 SCT070 BKN110
     FM010200 35007KT P6SM FEW080 BKN120
     FM010400 29006KT P6SM SCT100 BKN200
     FM011000 VRB04KT P6SM SCT090 BKN200
     FM011500 25007KT P6SM FEW120 SCT200
     FM011800 VRB05KT P6SM SCT090 BKN200
     FM012200 26011KT P6SM VCSH SCT090 BKN150=

USA.gov is the U.S. government's official web portal to all federal, state and local government web resources and services.